sensor_id;sensor_type;location;lat;lon;timestamp;P1;durP1;ratioP1;P2;durP2;ratioP2
12925;SDS011;6529;50.566;9.774;2023-04-25T00:00:09;9.10;;;7.27;;
12925;SDS011;6529;50.566;9.774;2023-04-25T00:02:35;8.53;;;7.30;;
12925;SDS011;6529;50.566;9.774;2023-04-25T00:05:01;10.03;;;7.33;;
12925;SDS011;6529;50.566;9.774;2023-04-25T00:07:28;9.93;;;7.87;;
12925;SDS011;6529;50.566;9.774;2023-04-25T00:09:53;10.70;;;7.47;;
12925;SDS011;6529;50.566;9.774;2023-04-25T00:12:19;9.50;;;7.83;;
12925;SDS011;6529;50.566;9.774;2023-04-25T00:14:46;8.80;;;7.57;;
12925;SDS011;6529;50.566;9.774;2023-04-25T00:17:12;9.93;;;8.00;;
12925;SDS011;6529;50.566;9.774;2023-04-25T00:19:37;12.57;;;8.80;;
12925;SDS011;6529;50.566;9.774;2023-04-25T00:22:03;11.10;;;8.07;;
12925;SDS011;6529;50.566;9.774;2023-04-25T00:24:30;11.23;;;8.63;;
12925;SDS011;6529;50.566;9.774;2023-04-25T00:26:56;11.87;;;8.70;;
12925;SDS011;6529;50.566;9.774;2023-04-25T00:29:21;10.70;;;7.73;;
12925;SDS011;6529;50.566;9.774;2023-04-25T00:31:47;11.90;;;8.50;;
12925;SDS011;6529;50.566;9.774;2023-04-25T00:34:12;13.07;;;8.50;;
12925;SDS011;6529;50.566;9.774;2023-04-25T00:36:38;13.43;;;8.77;;
12925;SDS011;6529;50.566;9.774;2023-04-25T00:39:03;10.57;;;8.20;;
12925;SDS011;6529;50.566;9.774;2023-04-25T00:41:29;12.47;;;8.53;;
12925;SDS011;6529;50.566;9.774;2023-04-25T00:43:55;10.63;;;8.20;;
12925;SDS011;6529;50.566;9.774;2023-04-25T00:46:22;9.77;;;8.07;;
12925;SDS011;6529;50.566;9.774;2023-04-25T00:48:48;10.50;;;8.33;;
12925;SDS011;6529;50.566;9.774;2023-04-25T00:51:14;10.33;;;7.90;;
12925;SDS011;6529;50.566;9.774;2023-04-25T00:53:43;11.13;;;8.90;;
12925;SDS011;6529;50.566;9.774;2023-04-25T00:56:10;10.80;;;8.70;;
12925;SDS011;6529;50.566;9.774;2023-04-25T00:58:36;11.57;;;8.20;;
12925;SDS011;6529;50.566;9.774;2023-04-25T01:01:02;11.77;;;8.90;;
12925;SDS011;6529;50.566;9.774;2023-04-25T01:03:28;11.50;;;8.00;;
12925;SDS011;6529;50.566;9.774;2023-04-25T01:05:55;9.73;;;7.97;;
12925;SDS011;6529;50.566;9.774;2023-04-25T01:08:22;10.33;;;8.10;;
12925;SDS011;6529;50.566;9.774;2023-04-25T01:10:48;10.67;;;8.00;;
12925;SDS011;6529;50.566;9.774;2023-04-25T01:13:14;10.50;;;8.20;;
12925;SDS011;6529;50.566;9.774;2023-04-25T01:15:40;12.27;;;8.63;;
12925;SDS011;6529;50.566;9.774;2023-04-25T01:18:05;10.57;;;8.30;;
12925;SDS011;6529;50.566;9.774;2023-04-25T01:20:32;12.37;;;9.00;;
12925;SDS011;6529;50.566;9.774;2023-04-25T01:22:59;10.17;;;8.40;;
12925;SDS011;6529;50.566;9.774;2023-04-25T01:25:25;10.07;;;8.00;;
12925;SDS011;6529;50.566;9.774;2023-04-25T01:27:51;10.73;;;7.97;;
12925;SDS011;6529;50.566;9.774;2023-04-25T01:30:17;10.60;;;7.97;;
12925;SDS011;6529;50.566;9.774;2023-04-25T01:32:43;9.90;;;7.90;;
12925;SDS011;6529;50.566;9.774;2023-04-25T01:35:09;9.07;;;7.73;;
12925;SDS011;6529;50.566;9.774;2023-04-25T01:37:40;9.63;;;7.60;;
12925;SDS011;6529;50.566;9.774;2023-04-25T01:40:06;10.97;;;7.63;;
12925;SDS011;6529;50.566;9.774;2023-04-25T01:42:34;11.37;;;7.73;;
12925;SDS011;6529;50.566;9.774;2023-04-25T01:45:01;9.07;;;7.30;;
12925;SDS011;6529;50.566;9.774;2023-04-25T01:47:27;9.60;;;7.50;;
12925;SDS011;6529;50.566;9.774;2023-04-25T01:49:52;9.07;;;6.83;;
12925;SDS011;6529;50.566;9.774;2023-04-25T01:52:18;8.80;;;7.70;;
12925;SDS011;6529;50.566;9.774;2023-04-25T01:54:44;8.97;;;7.50;;
12925;SDS011;6529;50.566;9.774;2023-04-25T01:57:10;10.33;;;7.60;;
12925;SDS011;6529;50.566;9.774;2023-04-25T01:59:36;9.23;;;7.57;;
12925;SDS011;6529;50.566;9.774;2023-04-25T02:02:02;10.10;;;7.57;;
12925;SDS011;6529;50.566;9.774;2023-04-25T02:04:30;9.83;;;7.67;;
12925;SDS011;6529;50.566;9.774;2023-04-25T02:06:56;10.50;;;7.77;;
12925;SDS011;6529;50.566;9.774;2023-04-25T02:09:21;10.67;;;8.07;;
12925;SDS011;6529;50.566;9.774;2023-04-25T02:11:47;9.87;;;7.37;;
12925;SDS011;6529;50.566;9.774;2023-04-25T02:14:13;10.10;;;7.73;;
12925;SDS011;6529;50.566;9.774;2023-04-25T02:16:38;10.37;;;8.00;;
12925;SDS011;6529;50.566;9.774;2023-04-25T02:19:04;12.37;;;8.13;;
12925;SDS011;6529;50.566;9.774;2023-04-25T02:21:31;11.03;;;7.90;;
12925;SDS011;6529;50.566;9.774;2023-04-25T02:23:57;11.17;;;8.30;;
12925;SDS011;6529;50.566;9.774;2023-04-25T02:26:23;10.47;;;8.30;;
12925;SDS011;6529;50.566;9.774;2023-04-25T02:28:49;9.47;;;7.63;;
12925;SDS011;6529;50.566;9.774;2023-04-25T02:31:15;10.87;;;8.13;;
12925;SDS011;6529;50.566;9.774;2023-04-25T02:33:41;9.47;;;7.43;;
12925;SDS011;6529;50.566;9.774;2023-04-25T02:36:07;9.30;;;7.47;;
12925;SDS011;6529;50.566;9.774;2023-04-25T02:38:32;10.77;;;7.50;;
12925;SDS011;6529;50.566;9.774;2023-04-25T02:40:58;10.90;;;8.43;;
12925;SDS011;6529;50.566;9.774;2023-04-25T02:43:23;11.20;;;8.00;;
12925;SDS011;6529;50.566;9.774;2023-04-25T02:45:49;9.87;;;7.80;;
12925;SDS011;6529;50.566;9.774;2023-04-25T02:48:15;11.17;;;8.20;;
12925;SDS011;6529;50.566;9.774;2023-04-25T02:50:40;10.57;;;8.37;;
12925;SDS011;6529;50.566;9.774;2023-04-25T02:53:06;10.50;;;8.37;;
12925;SDS011;6529;50.566;9.774;2023-04-25T02:55:31;11.60;;;8.10;;
12925;SDS011;6529;50.566;9.774;2023-04-25T02:57:57;10.57;;;7.80;;
12925;SDS011;6529;50.566;9.774;2023-04-25T03:00:22;11.07;;;8.40;;
12925;SDS011;6529;50.566;9.774;2023-04-25T03:02:48;10.03;;;8.13;;
12925;SDS011;6529;50.566;9.774;2023-04-25T03:05:14;11.93;;;8.37;;
12925;SDS011;6529;50.566;9.774;2023-04-25T03:07:39;11.97;;;8.03;;
12925;SDS011;6529;50.566;9.774;2023-04-25T03:10:06;10.27;;;7.67;;
12925;SDS011;6529;50.566;9.774;2023-04-25T03:12:32;11.13;;;7.93;;
12925;SDS011;6529;50.566;9.774;2023-04-25T03:14:57;11.67;;;7.97;;
12925;SDS011;6529;50.566;9.774;2023-04-25T03:17:23;9.97;;;7.40;;
12925;SDS011;6529;50.566;9.774;2023-04-25T03:19:49;11.57;;;7.60;;
12925;SDS011;6529;50.566;9.774;2023-04-25T03:22:14;9.20;;;7.00;;
12925;SDS011;6529;50.566;9.774;2023-04-25T03:24:40;9.30;;;6.80;;
12925;SDS011;6529;50.566;9.774;2023-04-25T03:27:05;8.73;;;6.23;;
12925;SDS011;6529;50.566;9.774;2023-04-25T03:29:31;7.73;;;5.60;;
12925;SDS011;6529;50.566;9.774;2023-04-25T03:31:57;7.67;;;5.53;;
12925;SDS011;6529;50.566;9.774;2023-04-25T03:34:22;6.73;;;4.67;;
12925;SDS011;6529;50.566;9.774;2023-04-25T03:36:49;6.47;;;3.93;;
12925;SDS011;6529;50.566;9.774;2023-04-25T03:39:14;8.00;;;4.27;;
12925;SDS011;6529;50.566;9.774;2023-04-25T03:41:40;9.23;;;4.17;;
12925;SDS011;6529;50.566;9.774;2023-04-25T03:44:06;5.83;;;4.03;;
12925;SDS011;6529;50.566;9.774;2023-04-25T03:46:31;7.13;;;3.70;;
12925;SDS011;6529;50.566;9.774;2023-04-25T03:48:57;6.33;;;4.00;;
12925;SDS011;6529;50.566;9.774;2023-04-25T03:51:24;6.40;;;3.70;;
12925;SDS011;6529;50.566;9.774;2023-04-25T03:53:51;6.10;;;3.73;;
12925;SDS011;6529;50.566;9.774;2023-04-25T03:56:17;4.90;;;3.33;;
12925;SDS011;6529;50.566;9.774;2023-04-25T03:58:43;6.97;;;3.53;;
12925;SDS011;6529;50.566;9.774;2023-04-25T04:01:08;6.53;;;3.67;;
12925;SDS011;6529;50.566;9.774;2023-04-25T04:03:34;5.27;;;3.73;;
12925;SDS011;6529;50.566;9.774;2023-04-25T04:06:03;5.63;;;3.40;;
12925;SDS011;6529;50.566;9.774;2023-04-25T04:08:30;6.03;;;3.40;;
12925;SDS011;6529;50.566;9.774;2023-04-25T04:10:59;6.70;;;3.10;;
12925;SDS011;6529;50.566;9.774;2023-04-25T04:13:28;4.87;;;3.20;;
12925;SDS011;6529;50.566;9.774;2023-04-25T04:15:54;5.07;;;3.40;;
12925;SDS011;6529;50.566;9.774;2023-04-25T04:18:20;5.47;;;3.07;;
12925;SDS011;6529;50.566;9.774;2023-04-25T04:20:46;7.30;;;3.50;;
12925;SDS011;6529;50.566;9.774;2023-04-25T04:23:12;7.63;;;3.13;;
12925;SDS011;6529;50.566;9.774;2023-04-25T04:25:38;5.70;;;3.20;;
12925;SDS011;6529;50.566;9.774;2023-04-25T04:28:04;5.33;;;3.10;;
12925;SDS011;6529;50.566;9.774;2023-04-25T04:30:31;6.83;;;3.47;;
12925;SDS011;6529;50.566;9.774;2023-04-25T04:32:57;6.40;;;3.10;;
12925;SDS011;6529;50.566;9.774;2023-04-25T04:35:23;6.40;;;3.43;;
12925;SDS011;6529;50.566;9.774;2023-04-25T04:37:49;8.07;;;3.57;;
12925;SDS011;6529;50.566;9.774;2023-04-25T04:40:15;7.43;;;4.20;;
12925;SDS011;6529;50.566;9.774;2023-04-25T04:42:43;5.90;;;3.80;;
12925;SDS011;6529;50.566;9.774;2023-04-25T04:45:10;5.47;;;3.40;;
12925;SDS011;6529;50.566;9.774;2023-04-25T04:47:37;5.80;;;3.37;;
12925;SDS011;6529;50.566;9.774;2023-04-25T04:50:04;4.73;;;3.27;;
12925;SDS011;6529;50.566;9.774;2023-04-25T04:52:37;6.57;;;3.63;;
12925;SDS011;6529;50.566;9.774;2023-04-25T04:55:03;7.97;;;3.30;;
12925;SDS011;6529;50.566;9.774;2023-04-25T04:57:30;6.40;;;3.53;;
12925;SDS011;6529;50.566;9.774;2023-04-25T04:59:57;8.73;;;3.87;;
12925;SDS011;6529;50.566;9.774;2023-04-25T05:02:23;7.70;;;3.83;;
12925;SDS011;6529;50.566;9.774;2023-04-25T05:04:49;6.73;;;4.00;;
12925;SDS011;6529;50.566;9.774;2023-04-25T05:07:16;6.80;;;4.00;;
12925;SDS011;6529;50.566;9.774;2023-04-25T05:09:42;6.40;;;4.20;;
12925;SDS011;6529;50.566;9.774;2023-04-25T05:12:08;7.30;;;3.80;;
12925;SDS011;6529;50.566;9.774;2023-04-25T05:14:33;6.47;;;3.90;;
12925;SDS011;6529;50.566;9.774;2023-04-25T05:16:59;7.37;;;3.67;;
12925;SDS011;6529;50.566;9.774;2023-04-25T05:19:25;6.97;;;3.67;;
12925;SDS011;6529;50.566;9.774;2023-04-25T05:21:51;6.13;;;4.00;;
12925;SDS011;6529;50.566;9.774;2023-04-25T05:24:17;7.60;;;3.93;;
12925;SDS011;6529;50.566;9.774;2023-04-25T05:26:43;7.57;;;4.37;;
12925;SDS011;6529;50.566;9.774;2023-04-25T05:29:08;8.67;;;3.73;;
12925;SDS011;6529;50.566;9.774;2023-04-25T05:31:34;6.37;;;3.93;;
12925;SDS011;6529;50.566;9.774;2023-04-25T05:34:00;6.37;;;3.80;;
12925;SDS011;6529;50.566;9.774;2023-04-25T05:36:26;6.77;;;3.57;;
12925;SDS011;6529;50.566;9.774;2023-04-25T05:38:52;6.20;;;3.93;;
12925;SDS011;6529;50.566;9.774;2023-04-25T05:41:18;7.27;;;4.00;;
12925;SDS011;6529;50.566;9.774;2023-04-25T05:43:43;7.47;;;4.40;;
12925;SDS011;6529;50.566;9.774;2023-04-25T05:46:12;5.83;;;3.73;;
12925;SDS011;6529;50.566;9.774;2023-04-25T05:48:37;5.80;;;4.30;;
12925;SDS011;6529;50.566;9.774;2023-04-25T05:51:03;7.33;;;3.70;;
12925;SDS011;6529;50.566;9.774;2023-04-25T05:53:29;6.57;;;3.93;;
12925;SDS011;6529;50.566;9.774;2023-04-25T05:55:55;6.77;;;4.00;;
12925;SDS011;6529;50.566;9.774;2023-04-25T05:58:20;8.80;;;4.70;;
12925;SDS011;6529;50.566;9.774;2023-04-25T06:00:46;6.60;;;4.30;;
12925;SDS011;6529;50.566;9.774;2023-04-25T06:03:12;6.50;;;4.47;;
12925;SDS011;6529;50.566;9.774;2023-04-25T06:05:41;6.17;;;4.40;;
12925;SDS011;6529;50.566;9.774;2023-04-25T06:08:07;7.97;;;4.30;;
12925;SDS011;6529;50.566;9.774;2023-04-25T06:10:33;5.13;;;3.47;;
12925;SDS011;6529;50.566;9.774;2023-04-25T06:12:58;8.30;;;4.43;;
12925;SDS011;6529;50.566;9.774;2023-04-25T06:15:24;7.63;;;4.60;;
12925;SDS011;6529;50.566;9.774;2023-04-25T06:17:50;5.67;;;3.90;;
12925;SDS011;6529;50.566;9.774;2023-04-25T06:20:15;7.57;;;4.37;;
12925;SDS011;6529;50.566;9.774;2023-04-25T06:22:41;8.10;;;4.20;;
12925;SDS011;6529;50.566;9.774;2023-04-25T06:25:06;8.47;;;4.40;;
12925;SDS011;6529;50.566;9.774;2023-04-25T06:27:33;8.13;;;4.20;;
12925;SDS011;6529;50.566;9.774;2023-04-25T06:29:59;9.83;;;4.80;;
12925;SDS011;6529;50.566;9.774;2023-04-25T06:32:24;6.77;;;4.00;;
12925;SDS011;6529;50.566;9.774;2023-04-25T06:34:52;6.60;;;4.10;;
12925;SDS011;6529;50.566;9.774;2023-04-25T06:37:18;9.80;;;5.13;;
12925;SDS011;6529;50.566;9.774;2023-04-25T06:39:43;10.97;;;5.63;;
12925;SDS011;6529;50.566;9.774;2023-04-25T06:42:09;9.33;;;5.07;;
12925;SDS011;6529;50.566;9.774;2023-04-25T06:44:34;7.23;;;3.83;;
12925;SDS011;6529;50.566;9.774;2023-04-25T06:47:00;7.03;;;4.67;;
12925;SDS011;6529;50.566;9.774;2023-04-25T06:49:26;6.67;;;4.17;;
12925;SDS011;6529;50.566;9.774;2023-04-25T06:51:51;8.00;;;4.43;;
12925;SDS011;6529;50.566;9.774;2023-04-25T06:54:17;7.60;;;4.13;;
12925;SDS011;6529;50.566;9.774;2023-04-25T06:56:43;8.43;;;4.87;;
12925;SDS011;6529;50.566;9.774;2023-04-25T06:59:08;7.67;;;4.40;;
12925;SDS011;6529;50.566;9.774;2023-04-25T07:01:34;6.87;;;4.37;;
12925;SDS011;6529;50.566;9.774;2023-04-25T07:04:00;5.93;;;4.67;;
12925;SDS011;6529;50.566;9.774;2023-04-25T07:06:26;7.97;;;4.40;;
12925;SDS011;6529;50.566;9.774;2023-04-25T07:08:52;6.43;;;4.20;;
12925;SDS011;6529;50.566;9.774;2023-04-25T07:11:18;7.20;;;4.50;;
12925;SDS011;6529;50.566;9.774;2023-04-25T07:13:44;5.97;;;4.30;;
12925;SDS011;6529;50.566;9.774;2023-04-25T07:16:09;5.70;;;4.23;;
12925;SDS011;6529;50.566;9.774;2023-04-25T07:18:35;8.67;;;4.07;;
12925;SDS011;6529;50.566;9.774;2023-04-25T07:21:00;5.83;;;4.23;;
12925;SDS011;6529;50.566;9.774;2023-04-25T07:23:26;6.77;;;4.57;;
12925;SDS011;6529;50.566;9.774;2023-04-25T07:25:51;7.90;;;4.40;;
12925;SDS011;6529;50.566;9.774;2023-04-25T07:28:17;7.57;;;4.33;;
12925;SDS011;6529;50.566;9.774;2023-04-25T07:30:43;7.07;;;4.30;;
12925;SDS011;6529;50.566;9.774;2023-04-25T07:33:08;6.77;;;3.90;;
12925;SDS011;6529;50.566;9.774;2023-04-25T07:35:34;4.90;;;3.90;;
12925;SDS011;6529;50.566;9.774;2023-04-25T07:38:01;7.20;;;3.80;;
12925;SDS011;6529;50.566;9.774;2023-04-25T07:40:27;6.43;;;3.93;;
12925;SDS011;6529;50.566;9.774;2023-04-25T07:42:53;6.63;;;3.80;;
12925;SDS011;6529;50.566;9.774;2023-04-25T07:45:18;7.03;;;3.83;;
12925;SDS011;6529;50.566;9.774;2023-04-25T07:47:44;4.93;;;3.50;;
12925;SDS011;6529;50.566;9.774;2023-04-25T07:50:10;5.97;;;3.47;;
12925;SDS011;6529;50.566;9.774;2023-04-25T07:52:36;5.53;;;3.77;;
12925;SDS011;6529;50.566;9.774;2023-04-25T07:55:01;4.77;;;2.90;;
12925;SDS011;6529;50.566;9.774;2023-04-25T07:57:27;5.73;;;2.90;;
12925;SDS011;6529;50.566;9.774;2023-04-25T07:59:52;3.50;;;2.70;;
12925;SDS011;6529;50.566;9.774;2023-04-25T08:02:18;3.73;;;2.53;;
12925;SDS011;6529;50.566;9.774;2023-04-25T08:04:43;3.60;;;2.47;;
12925;SDS011;6529;50.566;9.774;2023-04-25T08:07:09;3.50;;;2.20;;
12925;SDS011;6529;50.566;9.774;2023-04-25T08:09:35;3.73;;;2.60;;
12925;SDS011;6529;50.566;9.774;2023-04-25T08:12:01;4.27;;;2.70;;
12925;SDS011;6529;50.566;9.774;2023-04-25T08:14:28;2.90;;;2.43;;
12925;SDS011;6529;50.566;9.774;2023-04-25T08:16:56;2.77;;;1.80;;
12925;SDS011;6529;50.566;9.774;2023-04-25T08:19:21;4.07;;;2.10;;
12925;SDS011;6529;50.566;9.774;2023-04-25T08:21:47;2.97;;;2.00;;
12925;SDS011;6529;50.566;9.774;2023-04-25T08:24:12;3.80;;;1.93;;
12925;SDS011;6529;50.566;9.774;2023-04-25T08:26:38;2.93;;;2.00;;
12925;SDS011;6529;50.566;9.774;2023-04-25T08:29:04;2.70;;;2.20;;
12925;SDS011;6529;50.566;9.774;2023-04-25T08:31:30;2.60;;;2.20;;
12925;SDS011;6529;50.566;9.774;2023-04-25T08:33:56;2.27;;;1.97;;
12925;SDS011;6529;50.566;9.774;2023-04-25T08:36:21;3.77;;;1.90;;
12925;SDS011;6529;50.566;9.774;2023-04-25T08:38:47;2.73;;;1.87;;
12925;SDS011;6529;50.566;9.774;2023-04-25T08:41:13;3.30;;;2.00;;
12925;SDS011;6529;50.566;9.774;2023-04-25T08:43:40;3.37;;;2.30;;
12925;SDS011;6529;50.566;9.774;2023-04-25T08:46:08;3.67;;;2.10;;
12925;SDS011;6529;50.566;9.774;2023-04-25T08:48:36;2.97;;;2.20;;
12925;SDS011;6529;50.566;9.774;2023-04-25T08:51:02;3.50;;;2.10;;
12925;SDS011;6529;50.566;9.774;2023-04-25T08:53:31;3.50;;;2.23;;
12925;SDS011;6529;50.566;9.774;2023-04-25T08:55:58;3.90;;;2.13;;
12925;SDS011;6529;50.566;9.774;2023-04-25T08:58:27;3.30;;;2.40;;
12925;SDS011;6529;50.566;9.774;2023-04-25T09:00:53;3.63;;;2.27;;
12925;SDS011;6529;50.566;9.774;2023-04-25T09:03:19;2.57;;;1.90;;
12925;SDS011;6529;50.566;9.774;2023-04-25T09:05:44;2.40;;;1.73;;
12925;SDS011;6529;50.566;9.774;2023-04-25T09:08:10;1.60;;;1.50;;
12925;SDS011;6529;50.566;9.774;2023-04-25T09:10:36;1.60;;;1.33;;
12925;SDS011;6529;50.566;9.774;2023-04-25T09:13:06;3.17;;;1.80;;
12925;SDS011;6529;50.566;9.774;2023-04-25T09:15:46;3.83;;;1.67;;
12925;SDS011;6529;50.566;9.774;2023-04-25T09:18:13;4.23;;;2.13;;
12925;SDS011;6529;50.566;9.774;2023-04-25T09:21:10;2.67;;;1.60;;
12925;SDS011;6529;50.566;9.774;2023-04-25T09:23:54;3.83;;;1.70;;
12925;SDS011;6529;50.566;9.774;2023-04-25T09:26:20;3.33;;;2.00;;
12925;SDS011;6529;50.566;9.774;2023-04-25T09:28:46;2.90;;;1.93;;
12925;SDS011;6529;50.566;9.774;2023-04-25T09:31:21;2.13;;;1.80;;
12925;SDS011;6529;50.566;9.774;2023-04-25T09:33:49;4.53;;;2.10;;
12925;SDS011;6529;50.566;9.774;2023-04-25T09:36:14;2.93;;;2.20;;
12925;SDS011;6529;50.566;9.774;2023-04-25T09:38:44;3.77;;;2.33;;
12925;SDS011;6529;50.566;9.774;2023-04-25T09:41:10;4.53;;;2.00;;
12925;SDS011;6529;50.566;9.774;2023-04-25T09:43:36;3.20;;;2.00;;
12925;SDS011;6529;50.566;9.774;2023-04-25T09:46:04;3.60;;;2.20;;
12925;SDS011;6529;50.566;9.774;2023-04-25T09:48:36;2.20;;;1.70;;
12925;SDS011;6529;50.566;9.774;2023-04-25T09:51:09;4.00;;;2.13;;
12925;SDS011;6529;50.566;9.774;2023-04-25T09:53:42;3.57;;;1.90;;
12925;SDS011;6529;50.566;9.774;2023-04-25T09:56:10;2.93;;;1.90;;
12925;SDS011;6529;50.566;9.774;2023-04-25T09:58:37;2.23;;;1.77;;
12925;SDS011;6529;50.566;9.774;2023-04-25T10:01:05;3.03;;;1.73;;
12925;SDS011;6529;50.566;9.774;2023-04-25T10:03:35;3.33;;;1.87;;
12925;SDS011;6529;50.566;9.774;2023-04-25T10:06:07;2.83;;;1.70;;
12925;SDS011;6529;50.566;9.774;2023-04-25T10:08:37;2.43;;;1.80;;
12925;SDS011;6529;50.566;9.774;2023-04-25T10:11:04;3.23;;;2.07;;
12925;SDS011;6529;50.566;9.774;2023-04-25T10:13:31;2.77;;;1.93;;
12925;SDS011;6529;50.566;9.774;2023-04-25T10:15:57;3.33;;;1.80;;
12925;SDS011;6529;50.566;9.774;2023-04-25T10:18:25;3.00;;;1.90;;
12925;SDS011;6529;50.566;9.774;2023-04-25T10:20:52;6.03;;;1.93;;
12925;SDS011;6529;50.566;9.774;2023-04-25T10:23:24;3.73;;;2.20;;
12925;SDS011;6529;50.566;9.774;2023-04-25T10:25:50;2.33;;;1.90;;
12925;SDS011;6529;50.566;9.774;2023-04-25T10:28:17;2.30;;;1.80;;
12925;SDS011;6529;50.566;9.774;2023-04-25T10:36:13;3.60;;;1.90;;
12925;SDS011;6529;50.566;9.774;2023-04-25T10:38:39;2.83;;;1.90;;
12925;SDS011;6529;50.566;9.774;2023-04-25T10:41:08;5.20;;;2.10;;
12925;SDS011;6529;50.566;9.774;2023-04-25T10:43:35;3.47;;;2.30;;
12925;SDS011;6529;50.566;9.774;2023-04-25T10:46:26;3.30;;;2.33;;
12925;SDS011;6529;50.566;9.774;2023-04-25T10:56:20;3.87;;;2.30;;
12925;SDS011;6529;50.566;9.774;2023-04-25T10:58:49;3.97;;;2.20;;
12925;SDS011;6529;50.566;9.774;2023-04-25T11:01:21;4.00;;;2.57;;
12925;SDS011;6529;50.566;9.774;2023-04-25T11:03:49;5.33;;;2.40;;
12925;SDS011;6529;50.566;9.774;2023-04-25T11:06:23;4.63;;;2.27;;
12925;SDS011;6529;50.566;9.774;2023-04-25T11:08:54;4.03;;;2.30;;
12925;SDS011;6529;50.566;9.774;2023-04-25T11:11:20;5.30;;;2.70;;
12925;SDS011;6529;50.566;9.774;2023-04-25T11:13:49;5.97;;;2.57;;
12925;SDS011;6529;50.566;9.774;2023-04-25T11:16:15;4.90;;;2.27;;
12925;SDS011;6529;50.566;9.774;2023-04-25T11:18:42;5.23;;;2.53;;
12925;SDS011;6529;50.566;9.774;2023-04-25T11:21:08;7.00;;;2.50;;
12925;SDS011;6529;50.566;9.774;2023-04-25T11:23:34;4.97;;;2.70;;
12925;SDS011;6529;50.566;9.774;2023-04-25T11:26:01;3.53;;;2.27;;
12925;SDS011;6529;50.566;9.774;2023-04-25T11:28:28;5.70;;;2.87;;
12925;SDS011;6529;50.566;9.774;2023-04-25T11:30:53;7.70;;;3.30;;
12925;SDS011;6529;50.566;9.774;2023-04-25T11:33:22;7.23;;;2.57;;
12925;SDS011;6529;50.566;9.774;2023-04-25T11:35:49;5.50;;;2.43;;
12925;SDS011;6529;50.566;9.774;2023-04-25T11:38:17;6.53;;;2.50;;
12925;SDS011;6529;50.566;9.774;2023-04-25T11:40:43;6.47;;;2.50;;
12925;SDS011;6529;50.566;9.774;2023-04-25T11:43:08;3.63;;;2.47;;
12925;SDS011;6529;50.566;9.774;2023-04-25T11:45:36;5.57;;;2.50;;
12925;SDS011;6529;50.566;9.774;2023-04-25T11:48:02;3.43;;;2.30;;
12925;SDS011;6529;50.566;9.774;2023-04-25T11:50:28;5.30;;;2.40;;
12925;SDS011;6529;50.566;9.774;2023-04-25T11:52:55;6.13;;;2.33;;
12925;SDS011;6529;50.566;9.774;2023-04-25T11:55:21;7.17;;;2.80;;
12925;SDS011;6529;50.566;9.774;2023-04-25T11:57:48;4.73;;;2.33;;
12925;SDS011;6529;50.566;9.774;2023-04-25T12:00:18;5.30;;;2.23;;
12925;SDS011;6529;50.566;9.774;2023-04-25T12:02:46;4.77;;;2.43;;
12925;SDS011;6529;50.566;9.774;2023-04-25T12:05:15;7.27;;;2.80;;
12925;SDS011;6529;50.566;9.774;2023-04-25T12:07:41;6.77;;;2.33;;
12925;SDS011;6529;50.566;9.774;2023-04-25T12:10:11;5.17;;;2.23;;
12925;SDS011;6529;50.566;9.774;2023-04-25T12:12:41;3.73;;;2.00;;
12925;SDS011;6529;50.566;9.774;2023-04-25T12:15:08;4.73;;;2.23;;
12925;SDS011;6529;50.566;9.774;2023-04-25T12:17:36;6.60;;;2.40;;
12925;SDS011;6529;50.566;9.774;2023-04-25T12:20:10;2.80;;;2.17;;
12925;SDS011;6529;50.566;9.774;2023-04-25T12:22:41;6.63;;;2.47;;
12925;SDS011;6529;50.566;9.774;2023-04-25T12:25:11;3.50;;;2.00;;
12925;SDS011;6529;50.566;9.774;2023-04-25T12:27:38;2.93;;;1.90;;
12925;SDS011;6529;50.566;9.774;2023-04-25T12:30:08;3.63;;;2.07;;
12925;SDS011;6529;50.566;9.774;2023-04-25T12:32:35;3.80;;;2.00;;
12925;SDS011;6529;50.566;9.774;2023-04-25T12:35:02;4.17;;;2.00;;
12925;SDS011;6529;50.566;9.774;2023-04-25T12:37:28;2.60;;;2.10;;
12925;SDS011;6529;50.566;9.774;2023-04-25T12:39:54;7.53;;;2.13;;
12925;SDS011;6529;50.566;9.774;2023-04-25T12:42:20;4.63;;;2.10;;
12925;SDS011;6529;50.566;9.774;2023-04-25T12:44:46;3.73;;;2.30;;
12925;SDS011;6529;50.566;9.774;2023-04-25T12:47:11;4.20;;;2.00;;
12925;SDS011;6529;50.566;9.774;2023-04-25T12:49:37;4.20;;;1.80;;
12925;SDS011;6529;50.566;9.774;2023-04-25T12:52:02;3.90;;;1.80;;
12925;SDS011;6529;50.566;9.774;2023-04-25T12:54:28;5.77;;;1.93;;
12925;SDS011;6529;50.566;9.774;2023-04-25T12:56:54;3.30;;;1.90;;
12925;SDS011;6529;50.566;9.774;2023-04-25T12:59:20;4.50;;;2.00;;
12925;SDS011;6529;50.566;9.774;2023-04-25T13:01:46;3.97;;;1.97;;
12925;SDS011;6529;50.566;9.774;2023-04-25T13:04:12;5.77;;;2.33;;
12925;SDS011;6529;50.566;9.774;2023-04-25T13:06:37;2.97;;;1.87;;
12925;SDS011;6529;50.566;9.774;2023-04-25T13:09:03;5.57;;;1.97;;
12925;SDS011;6529;50.566;9.774;2023-04-25T13:11:29;5.07;;;2.40;;
12925;SDS011;6529;50.566;9.774;2023-04-25T13:13:55;3.47;;;1.77;;
12925;SDS011;6529;50.566;9.774;2023-04-25T13:16:21;5.17;;;2.10;;
12925;SDS011;6529;50.566;9.774;2023-04-25T13:18:47;6.50;;;2.27;;
12925;SDS011;6529;50.566;9.774;2023-04-25T13:21:13;3.27;;;1.90;;
12925;SDS011;6529;50.566;9.774;2023-04-25T13:23:38;4.40;;;1.87;;
12925;SDS011;6529;50.566;9.774;2023-04-25T13:26:04;3.23;;;1.70;;
12925;SDS011;6529;50.566;9.774;2023-04-25T13:28:30;4.67;;;1.87;;
12925;SDS011;6529;50.566;9.774;2023-04-25T13:30:55;4.07;;;2.00;;
12925;SDS011;6529;50.566;9.774;2023-04-25T13:33:21;3.57;;;1.90;;
12925;SDS011;6529;50.566;9.774;2023-04-25T13:35:48;3.63;;;2.00;;
12925;SDS011;6529;50.566;9.774;2023-04-25T13:38:19;3.50;;;2.03;;
12925;SDS011;6529;50.566;9.774;2023-04-25T13:40:46;2.83;;;1.83;;
12925;SDS011;6529;50.566;9.774;2023-04-25T13:43:11;3.03;;;1.80;;
12925;SDS011;6529;50.566;9.774;2023-04-25T13:45:37;5.57;;;1.90;;
12925;SDS011;6529;50.566;9.774;2023-04-25T13:48:02;3.27;;;1.90;;
12925;SDS011;6529;50.566;9.774;2023-04-25T13:50:28;6.13;;;2.07;;
12925;SDS011;6529;50.566;9.774;2023-04-25T13:52:54;2.90;;;1.90;;
12925;SDS011;6529;50.566;9.774;2023-04-25T13:55:20;6.13;;;1.83;;
12925;SDS011;6529;50.566;9.774;2023-04-25T13:57:45;4.80;;;2.00;;
12925;SDS011;6529;50.566;9.774;2023-04-25T14:00:11;3.47;;;1.80;;
12925;SDS011;6529;50.566;9.774;2023-04-25T14:02:37;4.13;;;1.80;;
12925;SDS011;6529;50.566;9.774;2023-04-25T14:05:03;2.50;;;1.60;;
12925;SDS011;6529;50.566;9.774;2023-04-25T14:07:30;3.90;;;1.80;;
12925;SDS011;6529;50.566;9.774;2023-04-25T14:09:56;3.40;;;1.97;;
12925;SDS011;6529;50.566;9.774;2023-04-25T14:12:22;3.25;;;2.05;;
12925;SDS011;6529;50.566;9.774;2023-04-25T14:14:48;3.97;;;1.90;;
12925;SDS011;6529;50.566;9.774;2023-04-25T14:17:14;3.87;;;1.70;;
12925;SDS011;6529;50.566;9.774;2023-04-25T14:19:40;3.27;;;1.50;;
12925;SDS011;6529;50.566;9.774;2023-04-25T14:22:08;3.07;;;1.60;;
12925;SDS011;6529;50.566;9.774;2023-04-25T14:24:34;4.97;;;1.93;;
12925;SDS011;6529;50.566;9.774;2023-04-25T14:27:00;2.37;;;1.70;;
12925;SDS011;6529;50.566;9.774;2023-04-25T14:29:26;3.07;;;1.43;;
12925;SDS011;6529;50.566;9.774;2023-04-25T14:31:51;2.00;;;1.60;;
12925;SDS011;6529;50.566;9.774;2023-04-25T14:34:18;3.13;;;1.70;;
12925;SDS011;6529;50.566;9.774;2023-04-25T14:36:44;3.73;;;1.67;;
12925;SDS011;6529;50.566;9.774;2023-04-25T14:39:09;3.37;;;1.43;;
12925;SDS011;6529;50.566;9.774;2023-04-25T14:41:35;3.60;;;1.53;;
12925;SDS011;6529;50.566;9.774;2023-04-25T14:44:00;3.10;;;1.67;;
12925;SDS011;6529;50.566;9.774;2023-04-25T14:46:26;4.13;;;1.80;;
12925;SDS011;6529;50.566;9.774;2023-04-25T14:48:52;2.53;;;1.70;;
12925;SDS011;6529;50.566;9.774;2023-04-25T14:51:17;4.07;;;1.60;;
12925;SDS011;6529;50.566;9.774;2023-04-25T14:53:43;4.73;;;1.90;;
12925;SDS011;6529;50.566;9.774;2023-04-25T14:56:09;6.07;;;2.10;;
12925;SDS011;6529;50.566;9.774;2023-04-25T14:58:34;2.73;;;1.27;;
12925;SDS011;6529;50.566;9.774;2023-04-25T15:01:00;4.90;;;1.83;;
12925;SDS011;6529;50.566;9.774;2023-04-25T15:03:26;2.73;;;1.50;;
12925;SDS011;6529;50.566;9.774;2023-04-25T15:05:55;3.70;;;1.60;;
12925;SDS011;6529;50.566;9.774;2023-04-25T15:08:20;4.03;;;1.80;;